createdAt,value
2019-04-25T00:00:19.345Z,0.00
2019-04-25T00:01:19.312Z,0.00
2019-04-25T00:02:19.286Z,0.00
2019-04-25T00:03:19.261Z,0.00
2019-04-25T00:04:19.243Z,0.00
2019-04-25T00:05:19.217Z,0.00
2019-04-25T00:06:19.195Z,0.00
2019-04-25T00:07:19.185Z,0.00
2019-04-25T00:08:19.150Z,0.00
2019-04-25T00:09:19.135Z,0.00
2019-04-25T00:10:19.102Z,0.00
2019-04-25T00:11:19.084Z,0.00
2019-04-25T00:12:19.057Z,0.00
2019-04-25T00:13:19.038Z,0.00
2019-04-25T00:14:19.010Z,0.00
2019-04-25T00:15:18.992Z,0.00
2019-04-25T00:16:18.971Z,0.00
2019-04-25T00:17:18.942Z,0.00
2019-04-25T00:18:18.923Z,0.00
2019-04-25T00:19:18.904Z,0.00
2019-04-25T00:20:18.878Z,0.00
2019-04-25T00:21:18.853Z,0.00
2019-04-25T00:22:18.869Z,0.00
2019-04-25T00:23:18.816Z,0.00
2019-04-25T00:24:18.802Z,0.00
2019-04-25T00:25:18.767Z,0.00
2019-04-25T00:26:18.745Z,0.00
2019-04-25T00:27:18.725Z,0.00
2019-04-25T00:28:18.706Z,0.00
2019-04-25T00:29:18.677Z,0.00
2019-04-25T00:30:18.652Z,0.00
2019-04-25T00:31:18.648Z,0.00
2019-04-25T00:32:18.609Z,0.00
2019-04-25T00:33:18.582Z,0.00
2019-04-25T00:34:18.566Z,0.00
2019-04-25T00:35:18.540Z,0.00
2019-04-25T00:36:18.526Z,0.00
2019-04-25T00:37:18.495Z,0.00
2019-04-25T00:38:18.470Z,0.00
2019-04-25T00:39:18.448Z,0.00
2019-04-25T00:40:18.430Z,0.00
2019-04-25T00:41:18.405Z,0.00
2019-04-25T00:42:18.376Z,0.00
2019-04-25T00:43:18.356Z,0.00
2019-04-25T00:44:18.327Z,0.00
2019-04-25T00:45:18.306Z,0.00
2019-04-25T00:46:18.292Z,0.00
2019-04-25T00:47:18.273Z,0.00
2019-04-25T00:48:18.239Z,0.00
2019-04-25T00:49:18.240Z,0.00
2019-04-25T00:50:18.204Z,0.00
2019-04-25T00:51:18.177Z,0.00
2019-04-25T00:52:18.154Z,0.00
2019-04-25T00:53:18.131Z,0.00
2019-04-25T00:54:18.105Z,0.00
2019-04-25T00:55:26.925Z,0.00
2019-04-25T00:56:18.057Z,0.00
2019-04-25T00:57:18.072Z,0.00
2019-04-25T00:58:18.017Z,0.00
2019-04-25T00:59:17.990Z,0.00
2019-04-25T01:00:17.972Z,0.00
2019-04-25T01:01:17.943Z,0.00
2019-04-25T01:02:17.917Z,0.00
2019-04-25T01:03:17.905Z,0.00
2019-04-25T01:04:17.879Z,0.00
2019-04-25T01:05:17.857Z,0.00
2019-04-25T01:06:17.830Z,0.00
2019-04-25T01:07:17.808Z,0.00
2019-04-25T01:08:17.782Z,0.00
2019-04-25T01:09:17.763Z,0.00
2019-04-25T01:10:17.737Z,0.00
2019-04-25T01:11:17.715Z,0.00
2019-04-25T01:12:17.692Z,0.00
2019-04-25T01:13:17.670Z,0.00
2019-04-25T01:14:17.670Z,0.00
2019-04-25T01:15:17.630Z,0.00
2019-04-25T01:16:17.603Z,0.00
2019-04-25T01:17:17.572Z,0.00
2019-04-25T01:18:17.553Z,0.00
2019-04-25T01:19:17.550Z,0.00
2019-04-25T01:20:17.512Z,0.00
2019-04-25T01:21:17.486Z,0.00
2019-04-25T01:22:17.464Z,0.00
2019-04-25T01:23:17.439Z,0.00
2019-04-25T01:24:17.416Z,0.00
2019-04-25T01:25:17.390Z,0.00
2019-04-25T01:26:17.371Z,0.00
2019-04-25T01:27:17.356Z,0.00
2019-04-25T01:28:17.326Z,0.00
2019-04-25T01:29:17.300Z,0.00
2019-04-25T01:30:17.281Z,0.00
2019-04-25T01:31:17.259Z,0.00
2019-04-25T01:32:17.233Z,0.00
2019-04-25T01:33:17.211Z,0.00
2019-04-25T01:34:17.191Z,0.00
2019-04-25T01:35:17.166Z,0.00
2019-04-25T01:36:17.166Z,0.00
2019-04-25T01:37:17.141Z,0.00
2019-04-25T01:38:17.096Z,0.00
2019-04-25T01:39:17.166Z,0.00
2019-04-25T01:40:17.077Z,0.00
2019-04-25T01:41:17.185Z,0.00
2019-04-25T01:42:17.046Z,0.00
2019-04-25T01:43:17.065Z,0.00
2019-04-25T01:44:16.996Z,0.00
2019-04-25T01:45:16.958Z,0.00
2019-04-25T01:46:16.910Z,0.00
2019-04-25T01:47:16.889Z,0.00
2019-04-25T01:48:16.870Z,0.00
2019-04-25T01:49:16.840Z,0.00
2019-04-25T01:50:16.828Z,0.00
2019-04-25T01:51:16.795Z,0.00
2019-04-25T01:52:16.805Z,0.00
2019-04-25T01:53:16.766Z,0.00
2019-04-25T01:54:16.731Z,0.00
2019-04-25T01:55:16.703Z,0.00
2019-04-25T01:56:16.680Z,0.00
2019-04-25T01:57:16.661Z,0.00
2019-04-25T01:58:16.633Z,0.00
2019-04-25T01:59:16.615Z,0.00
2019-04-25T02:00:16.605Z,0.00
2019-04-25T02:01:16.565Z,0.00
2019-04-25T02:02:16.546Z,0.00
2019-04-25T02:03:16.520Z,0.00
2019-04-25T02:04:16.504Z,0.00
2019-04-25T02:05:16.495Z,0.00
2019-04-25T02:06:16.453Z,0.00
2019-04-25T02:07:16.429Z,0.00
2019-04-25T02:08:16.413Z,0.00
2019-04-25T02:09:16.387Z,0.00
2019-04-25T02:10:16.365Z,0.00
2019-04-25T02:11:17.881Z,0.00
2019-04-25T02:12:16.358Z,0.00
2019-04-25T02:13:16.298Z,0.00
2019-04-25T02:14:16.269Z,0.00
2019-04-25T02:15:16.248Z,0.00
2019-04-25T02:16:16.236Z,0.00
2019-04-25T02:17:16.206Z,0.00
2019-04-25T02:18:16.182Z,0.00
2019-04-25T02:19:16.152Z,0.00
2019-04-25T02:20:16.129Z,0.00
2019-04-25T02:21:16.109Z,0.00
2019-04-25T02:22:16.101Z,0.00
2019-04-25T02:23:16.065Z,0.00
2019-04-25T02:24:16.038Z,0.00
2019-04-25T02:25:16.025Z,0.00
2019-04-25T02:26:18.447Z,0.00
2019-04-25T02:27:15.971Z,0.00
2019-04-25T02:28:16.013Z,0.00
2019-04-25T02:29:15.923Z,0.00
2019-04-25T02:30:15.931Z,0.00
2019-04-25T02:31:18.353Z,0.00
2019-04-25T02:32:15.866Z,0.00
2019-04-25T02:33:15.843Z,0.00
2019-04-25T02:34:18.155Z,0.00
2019-04-25T02:35:15.796Z,0.00
2019-04-25T02:36:15.794Z,0.00
2019-04-25T02:37:15.743Z,0.00
2019-04-25T02:38:16.965Z,0.00
2019-04-25T02:39:15.698Z,0.00
2019-04-25T02:40:15.671Z,0.00
2019-04-25T02:41:15.653Z,0.00
2019-04-25T02:42:16.884Z,0.00
2019-04-25T02:43:15.630Z,0.00
2019-04-25T02:44:15.585Z,0.00
2019-04-25T02:45:16.599Z,0.00
2019-04-25T02:46:15.539Z,0.00
2019-04-25T02:47:15.540Z,0.00
2019-04-25T02:48:15.493Z,0.00
2019-04-25T02:49:29.904Z,0.00
2019-04-25T02:50:15.452Z,0.00
2019-04-25T02:51:15.430Z,0.00
2019-04-25T02:52:17.989Z,0.00
2019-04-25T02:53:15.380Z,0.00
2019-04-25T02:54:15.405Z,0.00
2019-04-25T02:55:29.456Z,0.00
2019-04-25T02:56:30.333Z,0.00
2019-04-25T02:57:15.287Z,0.00
2019-04-25T02:58:15.271Z,0.00
2019-04-25T02:59:15.248Z,0.00
2019-04-25T03:00:15.219Z,0.00
2019-04-25T03:01:21.612Z,0.00
2019-04-25T03:02:15.662Z,0.00
2019-04-25T03:03:15.152Z,0.00
2019-04-25T03:04:15.146Z,0.00
2019-04-25T03:05:15.111Z,0.00
2019-04-25T03:06:15.319Z,0.00
2019-04-25T03:07:17.570Z,0.00
2019-04-25T03:08:15.037Z,0.00
2019-04-25T03:09:15.595Z,0.00
2019-04-25T03:10:15.065Z,0.00
2019-04-25T03:11:15.343Z,0.00
2019-04-25T03:12:29.188Z,0.00
2019-04-25T03:13:15.085Z,0.00
2019-04-25T03:14:14.899Z,0.00
2019-04-25T03:15:14.873Z,0.00
2019-04-25T03:16:14.862Z,0.00
2019-04-25T03:17:14.836Z,0.00
2019-04-25T03:18:15.344Z,0.00
2019-04-25T03:19:14.781Z,0.00
2019-04-25T03:20:14.987Z,0.00
2019-04-25T03:21:17.509Z,0.00
2019-04-25T03:22:15.273Z,0.00
2019-04-25T03:23:14.719Z,0.00
2019-04-25T03:24:16.825Z,0.00
2019-04-25T03:25:17.482Z,0.00
2019-04-25T03:26:14.635Z,0.00
2019-04-25T03:27:14.603Z,0.00
2019-04-25T03:28:15.634Z,0.00
2019-04-25T03:29:14.565Z,0.00
2019-04-25T03:30:17.699Z,0.00
2019-04-25T03:31:22.177Z,0.00
2019-04-25T03:32:19.643Z,0.00
2019-04-25T03:33:19.365Z,0.00
2019-04-25T03:34:19.892Z,0.00
2019-04-25T03:35:14.595Z,0.00
2019-04-25T03:36:17.013Z,0.00
2019-04-25T03:37:14.386Z,0.00
2019-04-25T03:38:14.529Z,0.00
2019-04-25T03:39:14.815Z,0.00
2019-04-25T03:40:14.370Z,0.00
2019-04-25T03:41:14.768Z,4.00
2019-04-25T03:42:14.261Z,4.00
2019-04-25T03:43:14.991Z,4.00
2019-04-25T03:44:14.234Z,0.00
2019-04-25T03:45:14.918Z,4.00
2019-04-25T03:46:14.374Z,4.00
2019-04-25T03:47:14.146Z,8.00
2019-04-25T03:48:14.121Z,8.00
2019-04-25T03:49:14.098Z,8.00
2019-04-25T03:50:14.118Z,8.00
2019-04-25T03:51:15.683Z,12.00
2019-04-25T03:52:14.289Z,12.00
2019-04-25T03:53:14.065Z,16.00
2019-04-25T03:54:14.376Z,16.00
2019-04-25T03:55:14.428Z,24.00
2019-04-25T03:56:14.668Z,28.00
2019-04-25T03:57:14.626Z,28.00
2019-04-25T03:58:14.615Z,32.00
2019-04-25T03:59:14.595Z,36.00
2019-04-25T04:00:14.656Z,44.00
2019-04-25T04:01:15.556Z,52.00
2019-04-25T04:02:15.210Z,60.00
2019-04-25T04:03:15.115Z,68.00
2019-04-25T04:04:16.284Z,80.00
2019-04-25T04:05:14.901Z,88.00
2019-04-25T04:06:15.300Z,96.00
2019-04-25T04:07:14.714Z,112.00
2019-04-25T04:08:15.706Z,128.00
2019-04-25T04:09:14.303Z,140.00
2019-04-25T04:10:15.119Z,156.00
2019-04-25T04:11:14.609Z,168.00
2019-04-25T04:12:14.797Z,188.00
2019-04-25T04:13:14.628Z,204.00
2019-04-25T04:14:15.405Z,220.00
2019-04-25T04:15:15.601Z,240.00
2019-04-25T04:16:14.419Z,264.00
2019-04-25T04:17:15.090Z,288.00
2019-04-25T04:18:16.276Z,312.00
2019-04-25T04:19:14.784Z,336.00
2019-04-25T04:20:14.731Z,360.00
2019-04-25T04:21:15.909Z,384.00
2019-04-25T04:22:15.110Z,408.00
2019-04-25T04:23:14.306Z,432.00
2019-04-25T04:24:14.121Z,456.00
2019-04-25T04:25:13.860Z,480.00
2019-04-25T04:26:13.691Z,508.00
2019-04-25T04:27:14.469Z,536.00
2019-04-25T04:28:14.083Z,564.00
2019-04-25T04:29:14.138Z,596.00
2019-04-25T04:30:14.446Z,620.00
2019-04-25T04:31:14.307Z,648.00
2019-04-25T04:32:14.833Z,684.00
2019-04-25T04:33:25.801Z,712.00
2019-04-25T04:34:14.676Z,748.00
2019-04-25T04:35:14.626Z,780.00
2019-04-25T04:36:15.030Z,812.00
2019-04-25T04:37:14.625Z,844.00
2019-04-25T04:38:14.422Z,868.00
2019-04-25T04:39:13.859Z,904.00
2019-04-25T04:40:14.792Z,936.00
2019-04-25T04:41:14.282Z,976.00
2019-04-25T04:42:14.019Z,1016.00
2019-04-25T04:43:15.143Z,1068.00
2019-04-25T04:44:14.313Z,1112.00
2019-04-25T04:45:14.310Z,1152.00
2019-04-25T04:46:15.515Z,1180.00
2019-04-25T04:47:14.995Z,1208.00
2019-04-25T04:48:14.177Z,1240.00
2019-04-25T04:49:14.259Z,1264.00
2019-04-25T04:50:14.188Z,1292.00
2019-04-25T04:51:14.553Z,1324.00
2019-04-25T04:52:14.350Z,1352.00
2019-04-25T04:53:13.227Z,1376.00
2019-04-25T04:54:13.525Z,1400.00
2019-04-25T04:55:15.754Z,1424.00
2019-04-25T04:56:15.088Z,1448.00
2019-04-25T04:57:25.226Z,1472.00
2019-04-25T04:58:13.102Z,1496.00
2019-04-25T04:59:14.314Z,1520.00
2019-04-25T05:00:14.281Z,1544.00
2019-04-25T05:01:13.070Z,1568.00
2019-04-25T05:02:15.838Z,1592.00
2019-04-25T05:03:13.158Z,1616.00
2019-04-25T05:04:13.080Z,1644.00
2019-04-25T05:05:14.447Z,1664.00
2019-04-25T05:06:15.001Z,1688.00
2019-04-25T05:07:14.670Z,1712.00
2019-04-25T05:08:12.991Z,1728.00
2019-04-25T05:09:14.336Z,1748.00
2019-04-25T05:10:13.530Z,1772.00
2019-04-25T05:11:12.959Z,1792.00
2019-04-25T05:12:13.425Z,1812.00
2019-04-25T05:13:12.217Z,1828.00
2019-04-25T05:14:14.059Z,1848.00
2019-04-25T05:15:14.849Z,1872.00
2019-04-25T05:16:14.266Z,1888.00
2019-04-25T05:17:12.232Z,1908.00
2019-04-25T05:18:12.723Z,1928.00
2019-04-25T05:19:13.998Z,1948.00
2019-04-25T05:20:12.848Z,1968.00
2019-04-25T05:21:12.788Z,1984.00
2019-04-25T05:22:14.441Z,2008.00
2019-04-25T05:23:12.850Z,2032.00
2019-04-25T05:24:12.841Z,2068.00
2019-04-25T05:25:13.459Z,2124.00
2019-04-25T05:26:12.203Z,2232.00
2019-04-25T05:27:12.780Z,2472.00
2019-04-25T05:28:13.128Z,2764.00
2019-04-25T05:29:14.003Z,3196.00
2019-04-25T05:30:14.386Z,3620.00
2019-04-25T05:31:14.351Z,4516.00
2019-04-25T05:32:11.872Z,5240.00
2019-04-25T05:33:11.779Z,5324.00
2019-04-25T05:34:13.466Z,5012.00
2019-04-25T05:35:13.192Z,4936.00
2019-04-25T05:36:11.755Z,4528.00
2019-04-25T05:37:13.466Z,4200.00
2019-04-25T05:38:13.239Z,4216.00
2019-04-25T05:39:11.657Z,4336.00
2019-04-25T05:40:11.676Z,4116.00
2019-04-25T05:41:11.609Z,4328.00
2019-04-25T05:42:11.617Z,9816.00
2019-04-25T05:43:13.291Z,5344.00
2019-04-25T05:44:11.595Z,3796.00
2019-04-25T05:45:13.034Z,4292.00
2019-04-25T05:46:13.174Z,10380.00
2019-04-25T05:47:11.489Z,3476.00
2019-04-25T05:48:11.457Z,3244.00
2019-04-25T05:49:11.518Z,4024.00
2019-04-25T05:50:11.416Z,3812.00
2019-04-25T05:51:11.401Z,4008.00
2019-04-25T05:52:11.380Z,11216.00
2019-04-25T05:53:11.356Z,7932.00
2019-04-25T05:54:11.348Z,5204.00
2019-04-25T05:55:11.314Z,4128.00
2019-04-25T05:56:11.291Z,3396.00
2019-04-25T05:57:11.297Z,6660.00
2019-04-25T05:58:11.323Z,11456.00
2019-04-25T05:59:11.236Z,14176.00
2019-04-25T06:00:11.213Z,13892.00
2019-04-25T06:01:11.194Z,12716.00
2019-04-25T06:02:11.166Z,14212.00
2019-04-25T06:03:11.149Z,16800.00
2019-04-25T06:04:11.130Z,19808.00
2019-04-25T06:05:11.101Z,21344.00
2019-04-25T06:06:11.086Z,20800.00
2019-04-25T06:07:11.124Z,18976.00
2019-04-25T06:08:11.057Z,18688.00
2019-04-25T06:09:11.036Z,22144.00
2019-04-25T06:10:11.042Z,22368.00
2019-04-25T06:11:11.003Z,18880.00
2019-04-25T06:12:10.963Z,19424.00
2019-04-25T06:13:10.962Z,16160.00
2019-04-25T06:14:10.939Z,7948.00
2019-04-25T06:15:10.968Z,4288.00
2019-04-25T06:16:10.886Z,3316.00
2019-04-25T06:17:10.873Z,3252.00
2019-04-25T06:18:10.848Z,4304.00
2019-04-25T06:19:14.203Z,6936.00
2019-04-25T06:20:10.811Z,7028.00
2019-04-25T06:21:10.798Z,3640.00
2019-04-25T06:22:10.783Z,3544.00
2019-04-25T06:23:10.751Z,13328.00
2019-04-25T06:24:10.798Z,27648.00
2019-04-25T06:25:13.713Z,25152.00
2019-04-25T06:26:23.027Z,14404.00
2019-04-25T06:27:10.686Z,6012.00
2019-04-25T06:28:10.664Z,3464.00
2019-04-25T06:29:10.638Z,5160.00
2019-04-25T06:30:10.628Z,11472.00
2019-04-25T06:31:10.614Z,12264.00
2019-04-25T06:32:10.581Z,5844.00
2019-04-25T06:33:10.568Z,3612.00
2019-04-25T06:34:10.561Z,3164.00
2019-04-25T06:35:10.556Z,3012.00
2019-04-25T06:36:10.506Z,3156.00
2019-04-25T06:37:10.492Z,3132.00
2019-04-25T06:38:10.481Z,3000.00
2019-04-25T06:39:10.476Z,2988.00
2019-04-25T06:40:10.437Z,2992.00
2019-04-25T06:41:10.433Z,3004.00
2019-04-25T06:42:10.407Z,3016.00
2019-04-25T06:43:10.388Z,3032.00
2019-04-25T06:44:10.366Z,3040.00
2019-04-25T06:45:10.340Z,3048.00
2019-04-25T06:46:10.327Z,3060.00
2019-04-25T06:47:10.311Z,3072.00
2019-04-25T06:48:10.286Z,3112.00
2019-04-25T06:49:10.279Z,3228.00
2019-04-25T06:50:10.254Z,3408.00
2019-04-25T06:51:10.237Z,3340.00
2019-04-25T06:52:10.208Z,3256.00
2019-04-25T06:53:10.199Z,3236.00
2019-04-25T06:54:10.186Z,3244.00
2019-04-25T06:55:10.151Z,3300.00
2019-04-25T06:56:10.183Z,3384.00
2019-04-25T06:57:10.128Z,3568.00
2019-04-25T06:58:14.040Z,3820.00
2019-04-25T06:59:10.083Z,3932.00
2019-04-25T07:00:10.117Z,3964.00
2019-04-25T07:01:10.050Z,3996.00
2019-04-25T07:02:10.031Z,4028.00
2019-04-25T07:03:10.024Z,4248.00
2019-04-25T07:04:09.994Z,4520.00
2019-04-25T07:05:09.980Z,4624.00
2019-04-25T07:06:09.958Z,4696.00
2019-04-25T07:07:12.736Z,4804.00
2019-04-25T07:08:09.935Z,4848.00
2019-04-25T07:09:09.903Z,4780.00
2019-04-25T07:10:09.922Z,4752.00
2019-04-25T07:11:09.884Z,4660.00
2019-04-25T07:12:09.981Z,4516.00
2019-04-25T07:13:09.833Z,4408.00
2019-04-25T07:14:09.824Z,4336.00
2019-04-25T07:15:09.800Z,4156.00
2019-04-25T07:16:09.795Z,4020.00
2019-04-25T07:17:09.779Z,3988.00
2019-04-25T07:18:09.798Z,4020.00
2019-04-25T07:19:09.786Z,4284.00
2019-04-25T07:20:09.729Z,4560.00
2019-04-25T07:21:09.725Z,4536.00
2019-04-25T07:22:09.694Z,4448.00
2019-04-25T07:23:09.693Z,4332.00
2019-04-25T07:24:09.709Z,4268.00
2019-04-25T07:25:09.647Z,4252.00
2019-04-25T07:26:09.645Z,4288.00
2019-04-25T07:27:09.661Z,4328.00
2019-04-25T07:28:21.528Z,4448.00
2019-04-25T07:29:09.588Z,4736.00
2019-04-25T07:30:09.600Z,4804.00
2019-04-25T07:31:09.571Z,4580.00
2019-04-25T07:32:09.559Z,4484.00
2019-04-25T07:33:09.549Z,4536.00
2019-04-25T07:34:09.545Z,4776.00
2019-04-25T07:35:09.523Z,4804.00
2019-04-25T07:36:09.505Z,4780.00
2019-04-25T07:37:09.484Z,4812.00
2019-04-25T07:38:09.469Z,4812.00
2019-04-25T07:39:10.473Z,4852.00
2019-04-25T07:40:09.443Z,4988.00
2019-04-25T07:41:09.435Z,5192.00
2019-04-25T07:42:09.413Z,5592.00
2019-04-25T07:43:09.408Z,5792.00
2019-04-25T07:44:09.399Z,5512.00
2019-04-25T07:45:09.486Z,5220.00
2019-04-25T07:46:09.357Z,5388.00
2019-04-25T07:47:09.411Z,5700.00
2019-04-25T07:48:09.345Z,5732.00
2019-04-25T07:49:09.326Z,5336.00
2019-04-25T07:50:09.338Z,4864.00
2019-04-25T07:51:09.321Z,4684.00
2019-04-25T07:52:11.469Z,4648.00
2019-04-25T07:53:09.267Z,4640.00
2019-04-25T07:54:09.255Z,4668.00
2019-04-25T07:55:09.261Z,4708.00
2019-04-25T07:56:09.237Z,4712.00
2019-04-25T07:57:09.221Z,4712.00
2019-04-25T07:58:09.242Z,4700.00
2019-04-25T07:59:09.196Z,4736.00
2019-04-25T08:00:09.186Z,4812.00
2019-04-25T08:01:09.196Z,4940.00
2019-04-25T08:02:09.161Z,4956.00
2019-04-25T08:03:09.151Z,4964.00
2019-04-25T08:04:09.131Z,4940.00
2019-04-25T08:05:09.125Z,4936.00
2019-04-25T08:06:09.106Z,4996.00
2019-04-25T08:07:09.112Z,5012.00
2019-04-25T08:08:09.116Z,4956.00
2019-04-25T08:09:09.077Z,4980.00
2019-04-25T08:10:09.064Z,5048.00
2019-04-25T08:11:09.055Z,5124.00
2019-04-25T08:12:09.039Z,5228.00
2019-04-25T08:13:09.033Z,5372.00
2019-04-25T08:14:09.043Z,5516.00
2019-04-25T08:15:09.013Z,5656.00
2019-04-25T08:16:08.998Z,5748.00
2019-04-25T08:17:08.992Z,5840.00
2019-04-25T08:18:08.986Z,5920.00
2019-04-25T08:19:08.975Z,6004.00
2019-04-25T08:20:08.969Z,6092.00
2019-04-25T08:21:08.947Z,6184.00
2019-04-25T08:22:08.928Z,6272.00
2019-04-25T08:23:08.918Z,6368.00
2019-04-25T08:24:08.954Z,6444.00
2019-04-25T08:25:08.903Z,6548.00
2019-04-25T08:26:08.896Z,6684.00
2019-04-25T08:27:08.892Z,6836.00
2019-04-25T08:28:08.880Z,7004.00
2019-04-25T08:29:08.857Z,7224.00
2019-04-25T08:30:08.837Z,7440.00
2019-04-25T08:31:08.834Z,7712.00
2019-04-25T08:32:08.828Z,7976.00
2019-04-25T08:33:08.837Z,8240.00
2019-04-25T08:34:08.843Z,8556.00
2019-04-25T08:35:08.789Z,8904.00
2019-04-25T08:36:09.324Z,9376.00
2019-04-25T08:37:18.081Z,10200.00
2019-04-25T08:38:08.752Z,11960.00
2019-04-25T08:39:08.770Z,14952.00
2019-04-25T08:40:08.761Z,18624.00
2019-04-25T08:41:08.757Z,18752.00
2019-04-25T08:42:08.716Z,20416.00
2019-04-25T08:43:08.705Z,21728.00
2019-04-25T08:44:08.728Z,24128.00
2019-04-25T08:45:08.687Z,25920.00
2019-04-25T08:46:08.668Z,26752.00
2019-04-25T08:47:08.674Z,25408.00
2019-04-25T08:48:08.651Z,25088.00
2019-04-25T08:49:08.648Z,21792.00
2019-04-25T08:50:08.627Z,28416.00
2019-04-25T08:51:08.621Z,23264.00
2019-04-25T08:52:08.609Z,19936.00
2019-04-25T08:53:08.605Z,28896.00
2019-04-25T08:54:08.589Z,27520.00
2019-04-25T08:55:08.585Z,25664.00
2019-04-25T08:56:08.592Z,24608.00
2019-04-25T08:57:08.566Z,30816.00
2019-04-25T08:58:08.566Z,65952.00
2019-04-25T08:59:08.579Z,92448.00
2019-04-25T09:00:08.528Z,91008.00
2019-04-25T09:01:08.544Z,87712.00
2019-04-25T09:02:08.538Z,89984.00
2019-04-25T09:03:08.523Z,86496.00
2019-04-25T09:04:08.507Z,45024.00
2019-04-25T09:05:08.487Z,65088.00
2019-04-25T09:06:08.499Z,72288.00
2019-04-25T09:07:08.488Z,97120.00
2019-04-25T09:08:08.464Z,63200.00
2019-04-25T09:09:08.493Z,83296.00
2019-04-25T09:10:08.437Z,95840.00
2019-04-25T09:11:08.437Z,89632.00
2019-04-25T09:12:08.443Z,62752.00
2019-04-25T09:13:08.416Z,89664.00
2019-04-25T09:14:08.402Z,79968.00
2019-04-25T09:15:08.399Z,91552.00
2019-04-25T09:16:08.401Z,82144.00
2019-04-25T09:17:08.406Z,75104.00
2019-04-25T09:18:08.377Z,97632.00
2019-04-25T09:19:08.396Z,98976.00
2019-04-25T09:20:08.356Z,85984.00
2019-04-25T09:21:08.348Z,96832.00
2019-04-25T09:22:08.338Z,85152.00
2019-04-25T09:23:08.370Z,104576.00
2019-04-25T09:24:08.323Z,105440.00
2019-04-25T09:25:08.309Z,102048.00
2019-04-25T09:26:08.297Z,84960.00
2019-04-25T09:27:08.306Z,95136.00
2019-04-25T09:28:08.281Z,99392.00
2019-04-25T09:29:16.699Z,98240.00
2019-04-25T09:30:08.268Z,101408.00
2019-04-25T09:31:08.258Z,99488.00
2019-04-25T09:32:08.256Z,99904.00
2019-04-25T09:33:08.265Z,102720.00
2019-04-25T09:34:08.236Z,103296.00
2019-04-25T09:35:08.232Z,100288.00
2019-04-25T09:36:08.240Z,93952.00
2019-04-25T09:37:08.207Z,83936.00
2019-04-25T09:38:08.200Z,79904.00
2019-04-25T09:39:08.194Z,79328.00
2019-04-25T09:40:08.204Z,82592.00
2019-04-25T09:41:08.187Z,81792.00
2019-04-25T09:42:08.166Z,83104.00
2019-04-25T09:43:08.162Z,86464.00
2019-04-25T09:44:08.150Z,90304.00
2019-04-25T09:45:08.149Z,90144.00
2019-04-25T09:46:08.150Z,91456.00
2019-04-25T09:47:08.130Z,93792.00
2019-04-25T09:48:08.140Z,96448.00
2019-04-25T09:49:08.126Z,90464.00
2019-04-25T09:50:08.104Z,88448.00
2019-04-25T09:51:08.103Z,92864.00
2019-04-25T09:52:08.089Z,97600.00
2019-04-25T09:53:20.784Z,92096.00
2019-04-25T09:54:08.066Z,88256.00
2019-04-25T09:55:08.091Z,89888.00
2019-04-25T09:56:08.073Z,99264.00
2019-04-25T09:57:08.047Z,103936.00
2019-04-25T09:58:08.045Z,100032.00
2019-04-25T09:59:08.037Z,96960.00
2019-04-25T10:00:08.027Z,94464.00
2019-04-25T10:01:08.018Z,96160.00
2019-04-25T10:02:08.038Z,97920.00
2019-04-25T10:03:08.005Z,100864.00
2019-04-25T10:04:08.005Z,104064.00
2019-04-25T10:05:08.020Z,106752.00
2019-04-25T10:06:07.973Z,102976.00
2019-04-25T10:07:07.976Z,92992.00
2019-04-25T10:08:07.970Z,91424.00
2019-04-25T10:09:07.963Z,98272.00
2019-04-25T10:10:07.969Z,104544.00
2019-04-25T10:11:07.948Z,110432.00
2019-04-25T10:12:07.947Z,92288.00
2019-04-25T10:13:07.960Z,69120.00
2019-04-25T10:14:07.931Z,74496.00
2019-04-25T10:15:07.922Z,76000.00
2019-04-25T10:16:07.931Z,76288.00
2019-04-25T10:17:07.930Z,62144.00
2019-04-25T10:18:07.902Z,50528.00
2019-04-25T10:19:07.915Z,73440.00
2019-04-25T10:20:07.896Z,62464.00
2019-04-25T10:21:07.886Z,59808.00
2019-04-25T10:22:07.890Z,76544.00
2019-04-25T10:23:07.867Z,53888.00
2019-04-25T10:24:07.877Z,54720.00
2019-04-25T10:25:07.877Z,43008.00
2019-04-25T10:26:07.864Z,44960.00
2019-04-25T10:27:07.852Z,41984.00
2019-04-25T10:28:07.836Z,45376.00
2019-04-25T10:29:07.832Z,64608.00
2019-04-25T10:30:16.906Z,49792.00
2019-04-25T10:31:07.821Z,56000.00
2019-04-25T10:32:07.816Z,59520.00
2019-04-25T10:33:07.806Z,60768.00
2019-04-25T10:34:07.800Z,45536.00
2019-04-25T10:35:07.787Z,38304.00
2019-04-25T10:36:07.800Z,34208.00
2019-04-25T10:37:07.784Z,35104.00
2019-04-25T10:38:07.814Z,38304.00
2019-04-25T10:39:10.767Z,38016.00
2019-04-25T10:40:07.786Z,34208.00
2019-04-25T10:41:07.759Z,33184.00
2019-04-25T10:42:07.756Z,36000.00
2019-04-25T10:43:07.746Z,56256.00
2019-04-25T10:44:07.736Z,41728.00
2019-04-25T10:45:20.249Z,36704.00
2019-04-25T10:46:07.724Z,37760.00
2019-04-25T10:47:07.717Z,43616.00
2019-04-25T10:48:07.717Z,46624.00
2019-04-25T10:49:07.698Z,52640.00
2019-04-25T10:50:07.700Z,41504.00
2019-04-25T10:51:07.693Z,45408.00
2019-04-25T10:52:07.704Z,73312.00
2019-04-25T10:53:07.676Z,51200.00
2019-04-25T10:54:07.685Z,37824.00
2019-04-25T10:55:07.676Z,36704.00
2019-04-25T10:56:07.691Z,47840.00
2019-04-25T10:57:07.646Z,39168.00
2019-04-25T10:58:07.642Z,47584.00
2019-04-25T10:59:07.660Z,58816.00
2019-04-25T11:00:09.587Z,47328.00
2019-04-25T11:01:07.638Z,47360.00
2019-04-25T11:02:07.629Z,51072.00
2019-04-25T11:03:07.614Z,50464.00
2019-04-25T11:04:07.607Z,38048.00
2019-04-25T11:05:07.604Z,39040.00
2019-04-25T11:06:07.591Z,37248.00
2019-04-25T11:07:07.591Z,37856.00
2019-04-25T11:08:07.581Z,42656.00
2019-04-25T11:09:07.588Z,41376.00
2019-04-25T11:10:07.571Z,41984.00
2019-04-25T11:11:07.588Z,39424.00
2019-04-25T11:12:07.563Z,39616.00
2019-04-25T11:13:07.562Z,39968.00
2019-04-25T11:14:07.672Z,45184.00
2019-04-25T11:15:07.540Z,39200.00
2019-04-25T11:16:07.538Z,40320.00
2019-04-25T11:17:07.530Z,37056.00
2019-04-25T11:18:07.531Z,37600.00
2019-04-25T11:19:07.521Z,46080.00
2019-04-25T11:20:07.511Z,67520.00
2019-04-25T11:21:07.507Z,50400.00
2019-04-25T11:22:07.498Z,39488.00
2019-04-25T11:23:07.488Z,37024.00
2019-04-25T11:24:07.493Z,36544.00
2019-04-25T11:25:07.486Z,33056.00
2019-04-25T11:26:07.488Z,32736.00
2019-04-25T11:27:07.478Z,32992.00
2019-04-25T11:28:07.495Z,31680.00
2019-04-25T11:29:07.460Z,33216.00
2019-04-25T11:30:10.797Z,33376.00
2019-04-25T11:31:07.458Z,34752.00
2019-04-25T11:32:07.511Z,35040.00
2019-04-25T11:33:07.439Z,36608.00
2019-04-25T11:34:07.467Z,39968.00
2019-04-25T11:35:07.429Z,43584.00
2019-04-25T11:36:07.445Z,54144.00
2019-04-25T11:37:07.434Z,43456.00
2019-04-25T11:38:08.166Z,45120.00
2019-04-25T11:39:07.430Z,52896.00
2019-04-25T11:40:07.406Z,70304.00
2019-04-25T11:41:07.393Z,40480.00
2019-04-25T11:42:07.398Z,56384.00
2019-04-25T11:43:07.384Z,66464.00
2019-04-25T11:44:07.381Z,37152.00
2019-04-25T11:45:07.370Z,29952.00
2019-04-25T11:46:07.398Z,27680.00
2019-04-25T11:47:08.672Z,30272.00
2019-04-25T11:48:07.362Z,34144.00
2019-04-25T11:49:07.359Z,33504.00
2019-04-25T11:50:07.355Z,31424.00
2019-04-25T11:51:07.348Z,31936.00
2019-04-25T11:52:07.339Z,32608.00
2019-04-25T11:53:07.329Z,35488.00
2019-04-25T11:54:07.346Z,61152.00
2019-04-25T11:55:07.320Z,34720.00
2019-04-25T11:56:07.320Z,33152.00
2019-04-25T11:57:07.310Z,35392.00
2019-04-25T11:58:07.308Z,35584.00
2019-04-25T11:59:07.298Z,31840.00
2019-04-25T12:00:07.299Z,31072.00
2019-04-25T12:01:07.355Z,33856.00
2019-04-25T12:02:07.296Z,37024.00
2019-04-25T12:03:07.285Z,34848.00
2019-04-25T12:04:07.295Z,43584.00
2019-04-25T12:05:07.266Z,39968.00
2019-04-25T12:06:07.272Z,31904.00
2019-04-25T12:07:08.618Z,30176.00
2019-04-25T12:08:07.247Z,29728.00
2019-04-25T12:09:07.244Z,30368.00
2019-04-25T12:10:07.241Z,30240.00
2019-04-25T12:11:07.237Z,33376.00
2019-04-25T12:12:07.228Z,31360.00
2019-04-25T12:13:07.219Z,30464.00
2019-04-25T12:14:07.218Z,29600.00
2019-04-25T12:15:07.215Z,28800.00
2019-04-25T12:16:07.212Z,27648.00
2019-04-25T12:17:07.196Z,29952.00
2019-04-25T12:18:07.190Z,30624.00
2019-04-25T12:19:07.192Z,31616.00
2019-04-25T12:20:07.183Z,31424.00